Time;durP1;ratioP1;P1;durP2;ratioP2;P2;SDS_P1;SDS_P2;PMS_P1;PMS_P2;Temp;Humidity;BMP_temperature;BMP_pressure;BME280_temperature;BME280_humidity;BME280_pressure;Samples;Min_cycle;Max_cycle;Signal;HPM_P1;HPM_P2
2022/07/18 00:01:18;;;;;;;38.22;6.32;;;;;;;;;;4922205;29;20027;-54
2022/07/18 00:03:45;;;;;;;44.30;8.15;;;;;;;;;;4924341;29;20627;-56
2022/07/18 00:06:12;;;;;;;33.97;6.28;;;;;;;;;;4932093;29;20529;-57
2022/07/18 00:08:39;;;;;;;36.47;6.55;;;;;;;;;;4932088;29;20043;-58
2022/07/18 00:11:06;;;;;;;37.25;7.03;;;;;;;;;;4915007;29;20050;-54
2022/07/18 00:13:33;;;;;;;36.25;6.60;;;;;;;;;;4913836;29;20111;-56
2022/07/18 00:16:00;;;;;;;39.92;7.57;;;;;;;;;;4911177;29;20052;-56
2022/07/18 00:18:27;;;;;;;35.75;6.85;;;;;;;;;;4913586;29;20107;-55
2022/07/18 00:20:54;;;;;;;31.50;6.57;;;;;;;;;;4914799;29;20114;-56
2022/07/18 00:23:21;;;;;;;40.65;6.72;;;;;;;;;;4913424;29;20418;-56
2022/07/18 00:25:48;;;;;;;35.83;6.55;;;;;;;;;;4914764;29;20028;-57
2022/07/18 00:28:15;;;;;;;36.90;6.43;;;;;;;;;;4911327;29;20462;-54
2022/07/18 00:30:42;;;;;;;28.45;6.20;;;;;;;;;;4913289;29;20036;-51
2022/07/18 00:33:09;;;;;;;28.08;6.05;;;;;;;;;;4914227;29;20036;-53
2022/07/18 00:35:36;;;;;;;26.80;6.38;;;;;;;;;;4914632;29;20039;-56
2022/07/18 00:38:03;;;;;;;26.63;6.65;;;;;;;;;;4918440;29;20029;-55
2022/07/18 00:40:31;;;;;;;26.60;5.30;;;;;;;;;;4915979;29;20050;-58
2022/07/18 00:42:58;;;;;;;36.50;6.30;;;;;;;;;;4917739;29;20129;-54
2022/07/18 00:45:25;;;;;;;30.60;6.65;;;;;;;;;;4918227;29;20052;-55
2022/07/18 00:47:52;;;;;;;33.28;6.15;;;;;;;;;;4918547;29;20035;-56
2022/07/18 00:50:20;;;;;;;31.33;6.28;;;;;;;;;;4917433;29;20363;-55
2022/07/18 00:52:47;;;;;;;38.85;6.80;;;;;;;;;;4914461;29;20383;-54
2022/07/18 00:55:15;;;;;;;28.58;6.05;;;;;;;;;;4920976;29;20031;-55
2022/07/18 00:57:42;;;;;;;30.63;5.78;;;;;;;;;;4917784;29;20098;-55
2022/07/18 01:02:56;;;;;;;32.08;6.00;;;;;;;;;;4931568;29;20149;-55
2022/07/18 01:05:23;;;;;;;39.80;5.93;;;;;;;;;;4935016;29;20386;-58
2022/07/18 01:07:51;;;;;;;37.67;6.13;;;;;;;;;;4930185;29;20032;-52
2022/07/18 01:10:18;;;;;;;25.50;5.80;;;;;;;;;;4925624;29;20095;-56
2022/07/18 01:12:45;;;;;;;46.05;6.57;;;;;;;;;;4932917;29;20091;-57
2022/07/18 01:15:13;;;;;;;50.00;7.10;;;;;;;;;;4937189;29;20118;-45
2022/07/18 01:17:40;;;;;;;38.10;6.85;;;;;;;;;;4933195;29;20024;-59
2022/07/18 01:20:08;;;;;;;44.83;6.80;;;;;;;;;;4933469;29;20050;-57
2022/07/18 01:22:35;;;;;;;36.22;6.82;;;;;;;;;;4930835;29;20050;-59
2022/07/18 01:25:02;;;;;;;63.40;8.57;;;;;;;;;;4926163;29;20040;-59
2022/07/18 01:27:29;;;;;;;50.28;6.70;;;;;;;;;;4935332;29;20031;-58
2022/07/18 01:29:56;;;;;;;46.05;6.93;;;;;;;;;;4930830;29;20182;-57
2022/07/18 01:32:23;;;;;;;50.83;7.15;;;;;;;;;;4929520;29;20086;-56
2022/07/18 01:34:51;;;;;;;43.45;7.30;;;;;;;;;;4931294;29;20433;-57
2022/07/18 01:37:18;;;;;;;43.35;7.28;;;;;;;;;;4931058;29;20023;-56
2022/07/18 01:39:46;;;;;;;38.67;7.45;;;;;;;;;;4931237;29;20032;-58
2022/07/18 01:42:13;;;;;;;40.25;7.32;;;;;;;;;;4931799;29;20088;-57
2022/07/18 01:44:41;;;;;;;40.95;6.85;;;;;;;;;;4930321;29;20058;-59
2022/07/18 01:47:09;;;;;;;35.90;7.35;;;;;;;;;;4931322;29;20024;-58
2022/07/18 01:49:36;;;;;;;41.58;7.47;;;;;;;;;;4931733;29;20515;-57
2022/07/18 01:52:03;;;;;;;36.90;6.50;;;;;;;;;;4931240;29;20028;-60
2022/07/18 01:54:31;;;;;;;37.53;6.63;;;;;;;;;;4930672;29;20090;-56
2022/07/18 01:56:59;;;;;;;50.90;7.57;;;;;;;;;;4930941;29;20518;-55
2022/07/18 01:59:27;;;;;;;38.78;6.63;;;;;;;;;;4932886;29;20514;-52
2022/07/18 02:01:54;;;;;;;45.45;7.10;;;;;;;;;;4933943;29;20410;-56
2022/07/18 02:04:59;;;;;;;40.17;6.40;;;;;;;;;;4935506;29;20482;-55
2022/07/18 02:07:07;;;;;;;46.80;7.18;;;;;;;;;;4933830;29;20042;-57
2022/07/18 02:09:34;;;;;;;33.20;6.85;;;;;;;;;;4933565;29;20133;-57
2022/07/18 02:12:01;;;;;;;41.17;6.07;;;;;;;;;;4935789;29;20040;-59
2022/07/18 02:14:28;;;;;;;39.00;6.40;;;;;;;;;;4933426;29;20490;-56
2022/07/18 02:16:55;;;;;;;37.53;6.38;;;;;;;;;;4927260;29;20035;-55
2022/07/18 02:19:22;;;;;;;36.88;6.10;;;;;;;;;;4925076;29;20024;-58
2022/07/18 02:21:49;;;;;;;36.10;6.13;;;;;;;;;;4924055;29;20046;-57
2022/07/18 02:24:16;;;;;;;30.80;5.80;;;;;;;;;;4927426;29;20024;-58
2022/07/18 02:26:43;;;;;;;37.00;6.90;;;;;;;;;;4925482;29;20032;-57
2022/07/18 02:29:10;;;;;;;38.40;5.78;;;;;;;;;;4925314;29;20032;-55
2022/07/18 02:31:37;;;;;;;26.92;5.35;;;;;;;;;;4924988;29;20398;-54
2022/07/18 02:34:10;;;;;;;32.35;4.97;;;;;;;;;;4925900;29;20093;-56
2022/07/18 02:36:40;;;;;;;27.85;5.50;;;;;;;;;;4927167;29;20081;-57
2022/07/18 02:39:08;;;;;;;28.15;4.80;;;;;;;;;;4926302;29;20546;-53
2022/07/18 02:41:35;;;;;;;21.60;4.80;;;;;;;;;;4925070;29;20036;-54
2022/07/18 02:44:02;;;;;;;23.73;5.20;;;;;;;;;;4924371;29;20075;-55
2022/07/18 02:46:29;;;;;;;21.75;5.22;;;;;;;;;;4926029;29;20134;-56
2022/07/18 02:48:56;;;;;;;25.58;4.32;;;;;;;;;;4925293;29;20474;-57
2022/07/18 02:51:23;;;;;;;25.15;4.93;;;;;;;;;;4930372;29;20039;-57
2022/07/18 02:53:50;;;;;;;28.65;5.03;;;;;;;;;;4926124;29;20062;-54
2022/07/18 02:56:16;;;;;;;24.02;4.68;;;;;;;;;;4922190;29;20378;-57
2022/07/18 02:58:43;;;;;;;22.60;4.60;;;;;;;;;;4924947;29;20039;-56
2022/07/18 03:01:10;;;;;;;30.73;5.18;;;;;;;;;;4926064;29;20028;-57
2022/07/18 03:03:37;;;;;;;19.23;4.03;;;;;;;;;;4924114;29;20087;-56
2022/07/18 03:06:05;;;;;;;22.98;4.50;;;;;;;;;;4925676;29;20031;-56
2022/07/18 03:08:32;;;;;;;24.25;4.82;;;;;;;;;;4923928;29;20099;-55
2022/07/18 03:10:59;;;;;;;19.17;3.78;;;;;;;;;;4924502;29;20071;-55
2022/07/18 03:13:26;;;;;;;22.38;4.57;;;;;;;;;;4925576;29;20136;-58
2022/07/18 03:15:53;;;;;;;21.65;4.30;;;;;;;;;;4926237;29;20054;-58
2022/07/18 03:18:22;;;;;;;21.10;4.80;;;;;;;;;;4925765;29;20039;-54
2022/07/18 03:20:49;;;;;;;16.23;3.88;;;;;;;;;;4923405;29;20047;-56
2022/07/18 03:23:16;;;;;;;18.67;4.20;;;;;;;;;;4926062;29;20394;-54
2022/07/18 03:25:43;;;;;;;17.75;4.28;;;;;;;;;;4924877;29;20076;-57
2022/07/18 03:28:10;;;;;;;22.70;4.45;;;;;;;;;;4924369;29;20086;-57
2022/07/18 03:30:37;;;;;;;23.25;4.07;;;;;;;;;;4924474;29;20043;-56
2022/07/18 03:33:04;;;;;;;18.30;3.97;;;;;;;;;;4923646;29;20032;-56
2022/07/18 03:35:31;;;;;;;19.30;4.20;;;;;;;;;;4924544;29;20028;-56
2022/07/18 03:37:57;;;;;;;18.83;4.07;;;;;;;;;;4925510;29;20027;-57
2022/07/18 03:40:24;;;;;;;22.02;4.07;;;;;;;;;;4924599;29;20028;-57
2022/07/18 03:42:51;;;;;;;15.30;3.80;;;;;;;;;;4922730;29;20047;-57
2022/07/18 03:45:18;;;;;;;22.95;4.35;;;;;;;;;;4925441;29;20581;-56
2022/07/18 03:47:45;;;;;;;17.33;4.00;;;;;;;;;;4924773;29;20083;-56
2022/07/18 03:50:12;;;;;;;18.60;3.88;;;;;;;;;;4923257;29;20043;-57
2022/07/18 03:52:39;;;;;;;15.27;3.67;;;;;;;;;;4925998;29;20122;-56
2022/07/18 03:55:06;;;;;;;13.65;4.38;;;;;;;;;;4913853;29;20036;-57
2022/07/18 03:57:33;;;;;;;14.90;3.30;;;;;;;;;;4915792;29;20032;-58
2022/07/18 04:00:00;;;;;;;14.88;3.65;;;;;;;;;;4915422;29;20032;-58
2022/07/18 04:02:27;;;;;;;17.65;3.78;;;;;;;;;;4916256;29;20035;-57
2022/07/18 04:04:54;;;;;;;16.73;3.58;;;;;;;;;;4915332;29;20028;-56
2022/07/18 04:07:21;;;;;;;16.08;3.53;;;;;;;;;;4913507;29;20032;-57
2022/07/18 04:09:48;;;;;;;10.77;3.25;;;;;;;;;;4915780;29;20036;-57
2022/07/18 04:12:15;;;;;;;18.35;3.75;;;;;;;;;;4915445;29;20025;-55
2022/07/18 04:14:42;;;;;;;14.82;3.15;;;;;;;;;;4915127;29;20123;-56
2022/07/18 04:17:09;;;;;;;18.80;3.50;;;;;;;;;;4915986;29;20071;-58
2022/07/18 04:19:36;;;;;;;16.25;3.35;;;;;;;;;;4913101;29;20024;-57
2022/07/18 04:22:03;;;;;;;14.20;3.38;;;;;;;;;;4915751;29;20487;-56
2022/07/18 04:24:30;;;;;;;14.93;3.33;;;;;;;;;;4915710;29;20463;-57
2022/07/18 04:26:57;;;;;;;15.45;3.42;;;;;;;;;;4915579;29;20032;-56
2022/07/18 04:29:24;;;;;;;13.48;3.30;;;;;;;;;;4915693;29;20436;-56
2022/07/18 04:31:52;;;;;;;15.38;3.33;;;;;;;;;;4913122;29;20036;-57
2022/07/18 04:34:19;;;;;;;11.02;2.47;;;;;;;;;;4915277;29;20028;-57
2022/07/18 04:36:46;;;;;;;14.55;3.53;;;;;;;;;;4915456;29;20127;-57
2022/07/18 04:39:13;;;;;;;15.50;3.08;;;;;;;;;;4915219;29;20079;-56
2022/07/18 04:41:40;;;;;;;13.75;2.90;;;;;;;;;;4915029;29;20131;-58
2022/07/18 04:44:07;;;;;;;12.23;2.88;;;;;;;;;;4913442;29;20036;-57
2022/07/18 04:46:34;;;;;;;8.20;2.90;;;;;;;;;;4915513;29;20044;-53
2022/07/18 04:49:01;;;;;;;11.10;2.90;;;;;;;;;;4915379;29;20044;-57
2022/07/18 04:51:28;;;;;;;11.05;3.08;;;;;;;;;;4914988;29;20047;-56
2022/07/18 04:53:55;;;;;;;11.90;2.50;;;;;;;;;;4914537;29;20040;-56
2022/07/18 04:56:23;;;;;;;9.45;2.58;;;;;;;;;;4914207;29;20566;-57
2022/07/18 04:58:50;;;;;;;12.40;2.70;;;;;;;;;;4914999;29;20028;-58
2022/07/18 05:01:16;;;;;;;9.98;2.20;;;;;;;;;;4915526;29;20510;-57
2022/07/18 05:03:43;;;;;;;9.32;2.50;;;;;;;;;;4914886;29;20033;-56
2022/07/18 05:06:10;;;;;;;12.02;3.00;;;;;;;;;;4913827;29;20032;-58
2022/07/18 05:08:38;;;;;;;6.07;2.28;;;;;;;;;;4914326;29;20040;-57
2022/07/18 05:11:05;;;;;;;14.52;3.05;;;;;;;;;;4915072;29;20050;-54
2022/07/18 05:13:31;;;;;;;9.70;2.85;;;;;;;;;;4913994;29;20060;-57
2022/07/18 05:15:58;;;;;;;8.10;2.40;;;;;;;;;;4914885;29;20582;-55
2022/07/18 05:18:25;;;;;;;9.27;2.53;;;;;;;;;;4913722;29;20039;-57
2022/07/18 05:20:52;;;;;;;6.03;2.35;;;;;;;;;;4914160;29;20168;-57
2022/07/18 05:23:19;;;;;;;10.05;2.58;;;;;;;;;;4918433;29;20099;-57
2022/07/18 05:25:46;;;;;;;6.70;2.65;;;;;;;;;;4918578;29;20032;-57
2022/07/18 05:28:13;;;;;;;5.00;2.00;;;;;;;;;;4918234;29;20497;-58
2022/07/18 05:30:40;;;;;;;10.30;2.42;;;;;;;;;;4915911;29;20477;-56
2022/07/18 05:33:07;;;;;;;8.10;2.33;;;;;;;;;;4918238;29;20032;-57
2022/07/18 05:35:34;;;;;;;6.18;2.20;;;;;;;;;;4917792;29;20051;-56
2022/07/18 05:38:01;;;;;;;9.90;2.53;;;;;;;;;;4917957;29;20040;-57
2022/07/18 05:40:28;;;;;;;7.78;2.20;;;;;;;;;;4918252;29;20051;-57
2022/07/18 05:42:55;;;;;;;7.82;2.13;;;;;;;;;;4915603;29;20036;-57
2022/07/18 05:45:25;;;;;;;6.95;2.30;;;;;;;;;;4917877;29;20048;-56
2022/07/18 05:47:53;;;;;;;5.50;2.28;;;;;;;;;;4917744;29;20028;-57
2022/07/18 05:50:20;;;;;;;7.63;2.55;;;;;;;;;;4918009;29;20039;-57
2022/07/18 05:52:47;;;;;;;7.40;1.98;;;;;;;;;;4917684;29;20490;-56
2022/07/18 05:55:15;;;;;;;6.43;2.20;;;;;;;;;;4915267;29;20052;-57
2022/07/18 05:57:42;;;;;;;4.80;1.90;;;;;;;;;;4918297;29;20041;-56
2022/07/18 06:00:10;;;;;;;5.00;1.52;;;;;;;;;;4917919;29;20032;-57
2022/07/18 06:02:37;;;;;;;7.50;2.15;;;;;;;;;;4917481;29;20020;-55
2022/07/18 06:05:05;;;;;;;5.28;1.70;;;;;;;;;;4916963;29;20043;-56
2022/07/18 06:07:33;;;;;;;6.78;2.40;;;;;;;;;;4916064;29;20028;-58
2022/07/18 06:10:00;;;;;;;4.93;1.75;;;;;;;;;;4917625;29;20060;-54
2022/07/18 06:12:32;;;;;;;6.25;1.77;;;;;;;;;;4917646;29;20028;-57
2022/07/18 06:15:00;;;;;;;4.53;1.80;;;;;;;;;;4916890;29;20048;-56
2022/07/18 06:17:30;;;;;;;5.38;1.90;;;;;;;;;;4916643;29;20028;-57
2022/07/18 06:19:57;;;;;;;4.47;1.80;;;;;;;;;;4916624;29;20028;-56
2022/07/18 06:22:24;;;;;;;7.47;1.88;;;;;;;;;;4916891;29;20024;-55
2022/07/18 06:24:52;;;;;;;5.20;1.70;;;;;;;;;;4916872;29;20115;-56
2022/07/18 06:27:19;;;;;;;4.38;1.55;;;;;;;;;;4917392;29;20032;-56
2022/07/18 06:29:46;;;;;;;5.45;1.88;;;;;;;;;;4915464;29;20037;-56
2022/07/18 06:32:13;;;;;;;4.25;1.42;;;;;;;;;;4916210;29;20035;-56
2022/07/18 06:34:39;;;;;;;7.35;1.95;;;;;;;;;;4917163;29;20060;-52
2022/07/18 06:37:06;;;;;;;5.75;1.67;;;;;;;;;;4917321;29;20028;-55
2022/07/18 06:39:33;;;;;;;5.40;1.60;;;;;;;;;;4917019;29;20036;-57
2022/07/18 06:42:00;;;;;;;4.78;1.52;;;;;;;;;;4915250;29;20040;-58
2022/07/18 06:44:27;;;;;;;4.45;1.80;;;;;;;;;;4916468;29;20447;-57
2022/07/18 06:46:54;;;;;;;2.40;1.23;;;;;;;;;;4916478;29;20032;-55
2022/07/18 06:49:22;;;;;;;4.53;1.33;;;;;;;;;;4917308;29;20024;-57
2022/07/18 06:51:49;;;;;;;4.20;1.52;;;;;;;;;;4917011;29;20036;-57
2022/07/18 06:54:16;;;;;;;4.75;1.58;;;;;;;;;;4914188;29;20514;-54
2022/07/18 06:56:42;;;;;;;3.97;1.42;;;;;;;;;;4916930;29;20107;-56
2022/07/18 06:59:10;;;;;;;4.68;1.58;;;;;;;;;;4917212;29;20038;-56
2022/07/18 07:01:37;;;;;;;4.25;1.58;;;;;;;;;;4916455;29;20119;-55
2022/07/18 07:04:04;;;;;;;3.33;1.10;;;;;;;;;;4916746;29;20043;-53
2022/07/18 07:06:30;;;;;;;7.70;1.85;;;;;;;;;;4914321;29;20036;-52
2022/07/18 07:08:57;;;;;;;6.85;1.50;;;;;;;;;;4916500;29;20028;-56
2022/07/18 07:11:24;;;;;;;5.68;1.58;;;;;;;;;;4916524;29;20569;-56
2022/07/18 07:13:51;;;;;;;7.97;1.52;;;;;;;;;;4916388;29;20367;-51
2022/07/18 07:16:18;;;;;;;5.60;1.45;;;;;;;;;;4916076;29;20044;-54
2022/07/18 07:18:45;;;;;;;4.78;1.50;;;;;;;;;;4914501;29;20036;-55
2022/07/18 07:21:12;;;;;;;9.63;1.80;;;;;;;;;;4916319;29;20032;-52
2022/07/18 07:23:40;;;;;;;13.05;1.83;;;;;;;;;;4916208;29;20032;-56
2022/07/18 07:26:08;;;;;;;14.88;2.00;;;;;;;;;;4916302;29;20036;-54
2022/07/18 07:28:35;;;;;;;24.15;2.40;;;;;;;;;;4915447;29;20044;-56
2022/07/18 07:31:02;;;;;;;17.95;2.58;;;;;;;;;;4933190;29;20482;-55
2022/07/18 07:33:29;;;;;;;18.02;2.60;;;;;;;;;;4934265;29;20458;-54
2022/07/18 07:35:57;;;;;;;10.05;2.05;;;;;;;;;;4935333;29;20155;-53
2022/07/18 07:38:27;;;;;;;16.85;2.00;;;;;;;;;;4935265;29;20059;-53
2022/07/18 07:40:55;;;;;;;11.27;1.50;;;;;;;;;;4933272;29;20103;-53
2022/07/18 07:43:24;;;;;;;10.48;1.77;;;;;;;;;;4933513;29;20059;-55
2022/07/18 07:45:52;;;;;;;12.55;2.10;;;;;;;;;;4934396;29;20064;-53
2022/07/18 07:48:20;;;;;;;8.40;1.63;;;;;;;;;;4934942;29;20038;-54
2022/07/18 07:50:47;;;;;;;12.25;1.83;;;;;;;;;;4935217;29;20098;-55
2022/07/18 07:53:14;;;;;;;18.15;2.10;;;;;;;;;;4932702;29;20048;-56
2022/07/18 07:55:41;;;;;;;11.00;1.85;;;;;;;;;;4934307;29;20047;-56
2022/07/18 07:58:09;;;;;;;9.48;1.70;;;;;;;;;;4934937;29;20031;-54
2022/07/18 08:00:36;;;;;;;9.73;1.90;;;;;;;;;;4935123;29;20063;-55
2022/07/18 08:03:05;;;;;;;10.07;1.70;;;;;;;;;;4934256;29;20099;-54
2022/07/18 08:05:33;;;;;;;11.68;1.63;;;;;;;;;;4932874;29;20031;-56
2022/07/18 08:08:01;;;;;;;7.57;1.63;;;;;;;;;;4934613;29;20024;-55
2022/07/18 08:10:29;;;;;;;6.45;1.35;;;;;;;;;;4934570;29;20040;-55
2022/07/18 08:12:56;;;;;;;8.95;1.80;;;;;;;;;;4935151;29;20110;-51
2022/07/18 08:15:24;;;;;;;7.35;1.45;;;;;;;;;;4934281;29;20059;-56
2022/07/18 08:17:51;;;;;;;8.02;1.95;;;;;;;;;;4932414;29;20051;-54
2022/07/18 08:20:18;;;;;;;5.03;1.77;;;;;;;;;;4934723;29;20119;-54
2022/07/18 08:22:55;;;;;;;11.95;1.85;;;;;;;;;;4934396;29;20028;-52
2022/07/18 08:25:22;;;;;;;4.28;1.40;;;;;;;;;;4935061;29;20489;-56
2022/07/18 08:27:50;;;;;;;4.85;1.50;;;;;;;;;;4933603;29;20438;-57
2022/07/18 08:30:17;;;;;;;4.55;1.60;;;;;;;;;;4933012;29;20038;-56
2022/07/18 08:32:44;;;;;;;10.25;1.70;;;;;;;;;;4934646;29;20063;-54
2022/07/18 08:35:11;;;;;;;6.22;1.75;;;;;;;;;;4934331;29;20522;-54
2022/07/18 08:37:38;;;;;;;4.93;1.50;;;;;;;;;;4934344;29;20118;-55
2022/07/18 08:40:06;;;;;;;6.00;1.20;;;;;;;;;;4933721;29;20087;-55
2022/07/18 08:42:34;;;;;;;4.63;1.33;;;;;;;;;;4932874;29;20032;-52
2022/07/18 08:45:02;;;;;;;5.60;1.27;;;;;;;;;;4933889;29;20086;-52
2022/07/18 08:47:32;;;;;;;4.50;1.30;;;;;;;;;;4934744;29;20028;-56
2022/07/18 08:50:01;;;;;;;4.53;1.38;;;;;;;;;;4934425;29;20113;-55
2022/07/18 08:52:28;;;;;;;6.47;1.63;;;;;;;;;;4932846;29;20083;-55
2022/07/18 08:54:56;;;;;;;5.28;1.38;;;;;;;;;;4932968;29;20116;-53
2022/07/18 08:57:24;;;;;;;6.85;1.20;;;;;;;;;;4936494;29;20030;-54
2022/07/18 08:59:51;;;;;;;3.40;1.35;;;;;;;;;;4938041;29;20031;-54
2022/07/18 09:02:18;;;;;;;4.07;1.10;;;;;;;;;;4938034;29;20075;-55
2022/07/18 09:04:46;;;;;;;3.08;0.98;;;;;;;;;;4935848;29;20039;-56
2022/07/18 09:07:24;;;;;;;6.30;1.38;;;;;;;;;;4937104;29;20067;-55
2022/07/18 09:09:55;;;;;;;3.92;1.35;;;;;;;;;;4937866;29;20044;-54
2022/07/18 09:12:22;;;;;;;4.10;1.10;;;;;;;;;;4936668;29;20423;-53
2022/07/18 09:14:49;;;;;;;4.15;1.30;;;;;;;;;;4937509;29;20031;-54
2022/07/18 09:17:18;;;;;;;2.47;0.95;;;;;;;;;;4935458;29;20063;-54
2022/07/18 09:20:07;;;;;;;3.28;1.08;;;;;;;;;;4937087;29;20028;-56
2022/07/18 09:22:35;;;;;;;3.20;1.20;;;;;;;;;;4937828;29;20038;-56
2022/07/18 09:25:07;;;;;;;4.45;1.27;;;;;;;;;;4937668;29;20406;-53
2022/07/18 09:27:45;;;;;;;5.10;1.27;;;;;;;;;;4937067;29;20030;-56
2022/07/18 09:30:18;;;;;;;2.97;0.98;;;;;;;;;;4934964;29;20142;-55
2022/07/18 09:32:46;;;;;;;4.22;0.95;;;;;;;;;;4937664;29;20027;-53
2022/07/18 09:35:17;;;;;;;4.15;0.90;;;;;;;;;;4937159;29;20055;-56
2022/07/18 09:38:04;;;;;;;3.78;1.10;;;;;;;;;;4937381;29;20071;-55
2022/07/18 09:40:50;;;;;;;1.83;0.95;;;;;;;;;;4918021;29;20429;-56
2022/07/18 09:43:18;;;;;;;2.78;0.90;;;;;;;;;;4937192;29;20031;-53
2022/07/18 09:45:49;;;;;;;3.25;0.60;;;;;;;;;;4937325;29;20514;-52
2022/07/18 09:48:18;;;;;;;2.65;0.90;;;;;;;;;;4937288;29;20389;-53
2022/07/18 09:50:51;;;;;;;2.72;1.00;;;;;;;;;;4936503;29;20036;-53
2022/07/18 09:53:26;;;;;;;5.22;0.93;;;;;;;;;;4934747;29;20027;-51
2022/07/18 09:55:54;;;;;;;2.40;1.00;;;;;;;;;;4937037;29;20068;-54
2022/07/18 09:58:23;;;;;;;2.33;0.80;;;;;;;;;;4937343;29;20055;-51
2022/07/18 10:00:50;;;;;;;2.40;1.23;;;;;;;;;;4936295;29;20043;-55
2022/07/18 10:03:18;;;;;;;4.43;1.00;;;;;;;;;;4937048;29;20057;-54
2022/07/18 10:05:45;;;;;;;3.55;0.77;;;;;;;;;;4934632;29;20028;-54
2022/07/18 10:08:16;;;;;;;4.22;0.95;;;;;;;;;;4936362;29;20098;-56
2022/07/18 10:10:44;;;;;;;2.80;0.80;;;;;;;;;;4937033;29;20118;-52
2022/07/18 10:13:12;;;;;;;1.98;0.80;;;;;;;;;;4936598;29;20030;-53
2022/07/18 10:15:40;;;;;;;2.47;0.85;;;;;;;;;;4936163;29;20079;-56
2022/07/18 10:18:08;;;;;;;2.65;0.70;;;;;;;;;;4935109;29;20028;-54
2022/07/18 10:20:44;;;;;;;4.32;0.63;;;;;;;;;;4936088;29;20043;-53
2022/07/18 10:23:30;;;;;;;2.97;0.80;;;;;;;;;;4936358;29;20040;-54
2022/07/18 10:26:36;;;;;;;2.88;0.80;;;;;;;;;;4936619;29;20474;-57
2022/07/18 10:29:03;;;;;;;1.25;0.50;;;;;;;;;;4875010;29;20079;-56
2022/07/18 10:31:32;;;;;;;3.78;1.00;;;;;;;;;;4877783;29;20045;-56
2022/07/18 10:34:19;;;;;;;2.03;0.80;;;;;;;;;;4900479;29;20505;-55
2022/07/18 10:36:52;;;;;;;2.67;0.60;;;;;;;;;;4936051;29;20035;-56
2022/07/18 10:39:20;;;;;;;3.42;0.70;;;;;;;;;;4935149;29;20297;-54
2022/07/18 10:41:47;;;;;;;1.20;0.50;;;;;;;;;;4934786;29;20129;-52
2022/07/18 10:44:26;;;;;;;2.22;0.70;;;;;;;;;;4935992;29;20035;-54
2022/07/18 10:47:05;;;;;;;3.17;0.85;;;;;;;;;;4936467;29;20107;-57
2022/07/18 10:49:52;;;;;;;1.52;0.57;;;;;;;;;;4935817;29;20059;-52
2022/07/18 10:52:36;;;;;;;7.68;1.02;;;;;;;;;;4924695;29;20111;-54
2022/07/18 10:57:30;;;;;;;3.78;0.93;;;;;;;;;;4936023;29;20036;-55
2022/07/18 11:00:15;;;;;;;2.55;0.75;;;;;;;;;;4936112;29;20044;-54
2022/07/18 11:02:44;;;;;;;2.10;0.80;;;;;;;;;;4935570;29;20467;-54
2022/07/18 11:05:26;;;;;;;2.65;0.57;;;;;;;;;;4933625;29;20106;-56
2022/07/18 11:07:59;;;;;;;1.25;0.52;;;;;;;;;;4935350;29;20345;-54
2022/07/18 11:10:49;;;;;;;1.77;0.60;;;;;;;;;;4935209;29;20079;-54
2022/07/18 11:13:28;;;;;;;1.98;0.55;;;;;;;;;;4935647;29;20682;-54
2022/07/18 11:15:58;;;;;;;1.23;0.70;;;;;;;;;;4934275;29;20036;-54
2022/07/18 11:18:25;;;;;;;1.52;0.40;;;;;;;;;;4934297;29;20043;-54
2022/07/18 11:20:53;;;;;;;2.40;0.70;;;;;;;;;;4934748;29;20030;-54
2022/07/18 11:23:24;;;;;;;5.70;1.00;;;;;;;;;;4935107;29;20040;-56
2022/07/18 11:25:55;;;;;;;2.75;0.90;;;;;;;;;;4935617;29;20043;-51
2022/07/18 11:28:23;;;;;;;1.55;0.52;;;;;;;;;;4933132;29;20031;-56
2022/07/18 11:31:03;;;;;;;1.30;0.50;;;;;;;;;;4935163;29;20055;-51
2022/07/18 11:33:31;;;;;;;4.07;0.63;;;;;;;;;;4934623;29;20036;-53
2022/07/18 11:36:08;;;;;;;3.00;0.57;;;;;;;;;;4935330;29;20442;-55
2022/07/18 11:38:35;;;;;;;2.55;0.52;;;;;;;;;;4934735;29;20443;-54
2022/07/18 11:41:03;;;;;;;3.53;0.70;;;;;;;;;;4931729;29;20431;-55
2022/07/18 11:43:30;;;;;;;2.55;0.52;;;;;;;;;;4935397;29;20028;-54
2022/07/18 11:46:03;;;;;;;2.25;0.50;;;;;;;;;;4934557;29;20055;-55
2022/07/18 11:48:30;;;;;;;2.25;0.50;;;;;;;;;;4934644;29;20035;-53
2022/07/18 11:50:57;;;;;;;1.35;0.50;;;;;;;;;;4934846;29;20036;-55
2022/07/18 11:53:25;;;;;;;1.83;0.68;;;;;;;;;;4933284;29;20035;-56
2022/07/18 11:55:53;;;;;;;2.72;0.70;;;;;;;;;;4934612;29;20039;-54
2022/07/18 11:58:20;;;;;;;1.02;0.50;;;;;;;;;;4935316;29;20482;-53
2022/07/18 12:00:47;;;;;;;3.60;0.70;;;;;;;;;;4934254;29;20047;-54
2022/07/18 12:03:19;;;;;;;1.48;0.52;;;;;;;;;;4934139;29;20099;-56
2022/07/18 12:05:51;;;;;;;2.72;0.60;;;;;;;;;;4943681;29;20031;-50
2022/07/18 12:08:34;;;;;;;1.85;0.70;;;;;;;;;;4953289;29;20063;-56
2022/07/18 12:11:04;;;;;;;1.92;0.57;;;;;;;;;;4954007;29;20046;-53
2022/07/18 12:14:06;;;;;;;5.13;0.80;;;;;;;;;;4953463;29;20485;-55
2022/07/18 12:16:33;;;;;;;3.78;0.55;;;;;;;;;;4892015;29;20040;-55
2022/07/18 12:19:29;;;;;;;4.38;0.55;;;;;;;;;;4928779;29;20039;-54
2022/07/18 12:21:58;;;;;;;2.30;0.47;;;;;;;;;;4901480;29;20159;-56
2022/07/18 12:24:31;;;;;;;2.00;0.60;;;;;;;;;;4953378;29;20031;-56
2022/07/18 12:27:18;;;;;;;1.75;0.52;;;;;;;;;;4952537;29;20035;-54
2022/07/18 12:30:04;;;;;;;2.38;0.70;;;;;;;;;;4942456;29;20050;-51
2022/07/18 12:32:51;;;;;;;6.22;0.63;;;;;;;;;;4957213;29;20086;-52
2022/07/18 12:35:19;;;;;;;3.03;0.80;;;;;;;;;;4947576;29;20048;-54
2022/07/18 12:37:53;;;;;;;1.90;0.50;;;;;;;;;;4957245;29;20521;-55
2022/07/18 12:40:21;;;;;;;5.60;0.80;;;;;;;;;;4954583;29;20438;-53
2022/07/18 12:42:48;;;;;;;2.45;0.55;;;;;;;;;;4957627;29;20038;-53
2022/07/18 12:45:15;;;;;;;1.42;0.45;;;;;;;;;;4956679;29;20055;-54
2022/07/18 12:47:43;;;;;;;2.90;0.40;;;;;;;;;;4957815;29;20028;-55
2022/07/18 12:50:10;;;;;;;1.42;0.50;;;;;;;;;;4956709;29;20506;-55
2022/07/18 12:52:37;;;;;;;7.22;0.50;;;;;;;;;;4955018;29;20027;-53
2022/07/18 12:55:04;;;;;;;2.72;0.68;;;;;;;;;;4956501;29;20019;-55
2022/07/18 12:57:31;;;;;;;0.75;0.40;;;;;;;;;;4957462;29;20030;-56
2022/07/18 12:59:58;;;;;;;5.05;0.70;;;;;;;;;;4957410;29;20545;-54
2022/07/18 13:02:25;;;;;;;1.73;0.50;;;;;;;;;;4956481;29;20031;-56
2022/07/18 13:04:52;;;;;;;3.35;0.70;;;;;;;;;;4954974;29;20027;-55
2022/07/18 13:07:19;;;;;;;1.70;0.40;;;;;;;;;;4956423;29;20031;-56
2022/07/18 13:09:46;;;;;;;3.60;0.50;;;;;;;;;;4957134;29;20031;-54
2022/07/18 13:12:13;;;;;;;2.30;0.65;;;;;;;;;;4956256;29;20028;-55
2022/07/18 13:14:40;;;;;;;3.60;0.60;;;;;;;;;;4956433;29;20023;-54
2022/07/18 13:17:07;;;;;;;2.20;0.50;;;;;;;;;;4953372;29;20050;-54
2022/07/18 13:19:34;;;;;;;2.08;0.52;;;;;;;;;;4936958;29;20043;-53
2022/07/18 13:22:01;;;;;;;1.92;0.52;;;;;;;;;;4937972;29;20110;-51
2022/07/18 13:24:28;;;;;;;1.88;0.55;;;;;;;;;;4937240;29;20023;-50
2022/07/18 13:26:55;;;;;;;1.65;0.40;;;;;;;;;;4936716;29;20031;-54
2022/07/18 13:29:22;;;;;;;0.98;0.50;;;;;;;;;;4936090;29;20498;-55
2022/07/18 13:31:51;;;;;;;0.57;0.32;;;;;;;;;;4936815;29;20060;-52
2022/07/18 13:34:20;;;;;;;2.15;0.60;;;;;;;;;;4937754;29;20039;-55
2022/07/18 13:36:48;;;;;;;1.00;0.47;;;;;;;;;;4936817;29;20040;-51
2022/07/18 13:39:15;;;;;;;1.85;0.40;;;;;;;;;;4935888;29;20126;-52
2022/07/18 13:41:42;;;;;;;1.30;0.50;;;;;;;;;;4935558;29;20032;-54
2022/07/18 13:44:09;;;;;;;2.22;0.50;;;;;;;;;;4936362;29;20028;-54
2022/07/18 13:46:36;;;;;;;3.60;0.40;;;;;;;;;;4937179;29;20036;-57
2022/07/18 13:49:03;;;;;;;4.82;0.90;;;;;;;;;;4937320;29;20024;-55
2022/07/18 13:51:30;;;;;;;2.35;0.65;;;;;;;;;;4934326;29;20091;-54
2022/07/18 13:53:57;;;;;;;3.40;0.60;;;;;;;;;;4937095;29;20024;-51
2022/07/18 13:56:24;;;;;;;2.67;0.50;;;;;;;;;;4936525;29;20028;-53
2022/07/18 13:58:50;;;;;;;1.00;0.55;;;;;;;;;;4937083;29;20078;-56
2022/07/18 14:01:17;;;;;;;5.47;0.60;;;;;;;;;;4935859;29;20387;-56
2022/07/18 14:03:44;;;;;;;1.00;0.50;;;;;;;;;;4934015;29;20107;-55
2022/07/18 14:06:11;;;;;;;1.33;0.57;;;;;;;;;;4936013;29;20024;-55
2022/07/18 14:08:39;;;;;;;1.63;0.43;;;;;;;;;;4937161;29;20036;-57
2022/07/18 14:11:06;;;;;;;3.50;0.50;;;;;;;;;;4936158;29;20071;-53
2022/07/18 14:13:33;;;;;;;4.82;0.80;;;;;;;;;;4936871;29;20047;-53
2022/07/18 14:16:00;;;;;;;4.63;0.43;;;;;;;;;;4933803;29;20044;-55
2022/07/18 14:18:27;;;;;;;1.40;0.50;;;;;;;;;;4936908;29;20034;-55
2022/07/18 14:20:54;;;;;;;3.35;0.60;;;;;;;;;;4936746;29;20031;-56
2022/07/18 14:23:21;;;;;;;2.97;0.68;;;;;;;;;;4935957;29;20020;-54
2022/07/18 14:25:48;;;;;;;3.30;0.50;;;;;;;;;;4936403;29;20039;-57
2022/07/18 14:28:15;;;;;;;1.13;0.50;;;;;;;;;;4934450;29;20027;-56
2022/07/18 14:30:42;;;;;;;2.45;0.50;;;;;;;;;;4936415;29;20031;-50
2022/07/18 14:33:09;;;;;;;4.88;0.40;;;;;;;;;;4936070;29;20035;-55
2022/07/18 14:35:38;;;;;;;2.33;0.30;;;;;;;;;;4936812;29;20028;-57
2022/07/18 14:38:05;;;;;;;2.83;0.55;;;;;;;;;;4934944;29;20693;-54
2022/07/18 14:40:32;;;;;;;2.20;0.75;;;;;;;;;;4934731;29;20036;-55
2022/07/18 14:42:59;;;;;;;2.22;0.50;;;;;;;;;;4935806;29;20394;-55
2022/07/18 14:45:26;;;;;;;5.03;0.68;;;;;;;;;;4936359;29;20060;-56
2022/07/18 14:47:53;;;;;;;3.85;0.70;;;;;;;;;;4936255;29;20024;-55
2022/07/18 14:50:20;;;;;;;3.20;0.50;;;;;;;;;;4934469;29;20072;-55
2022/07/18 14:52:47;;;;;;;4.88;0.50;;;;;;;;;;4935192;29;20023;-55